Pagina principală
METAR-TAF:

METAR-TAF

Aeroporturi :

Bridgeport Municipal Airport

Bridgeport, Texas, Statele Unite ale Americii

Latitudine: 33-10-31N, longitudine: 097-49-42W, elevație: 260 m

Observații meteo curente

Raportul a fost făcut în urmă cu 26 de minute, la 22:35 UTC
Vânt 8 kt de la Sud
Temperatură 34°C
Umiditate 39%
Presiune 1015 hPa
Vizibilitate: 16.1 km
Nori împrăștiați la o înălțime de 6000 picior

METAR: KXBP 222235Z AUTO 19008KT 10SM SCT060 34/18 A2998 RMK AO2 T03380178

Ora: 18:01 (23:01 UTC)


TAF: lipsă

Observații și prognoze meteo pentru peste 4.000 de aeroporturi (rapoarte METAR și TAF).

Stațiile disponibile sunt reprezentate pe hartă prin puncte galbene și roșii.

Țineți indicatorul mouse-ului pe punctul dorit pentru a vedea denumirea stației.

Apoi, faceți clic pentru a vedea observațiile și prognozele meteorologice.

Pentru a schimba harta: Pentru mărire, faceți clic pe butoanele verzi cu cruce neagră; pentru micșorare, pe butonul verde cu o liniuță; pentru hărți învecinate, pe săgețile verzi.


METAR-TAF: